createdAt,value
2018-11-02T00:01:36.150Z,6.00
2018-11-02T00:04:05.708Z,9.93
2018-11-02T00:06:35.172Z,11.10
2018-11-02T00:09:04.821Z,8.10
2018-11-02T00:11:34.244Z,39.57
2018-11-02T00:14:03.691Z,54.73
2018-11-02T00:16:33.249Z,41.47
2018-11-02T00:19:02.490Z,21.43
2018-11-02T00:21:31.847Z,21.03
2018-11-02T00:24:01.257Z,22.90
2018-11-02T00:26:30.710Z,54.63
2018-11-02T00:29:01.160Z,43.87
2018-11-02T00:31:31.256Z,21.40
2018-11-02T00:34:01.501Z,28.87
2018-11-02T00:36:31.067Z,13.17
2018-11-02T00:39:00.408Z,8.10
2018-11-02T00:41:29.794Z,7.10
2018-11-02T00:43:59.468Z,14.03
2018-11-02T00:46:28.813Z,13.43
2018-11-02T00:48:58.400Z,16.53
2018-11-02T00:51:27.896Z,25.30
2018-11-02T00:53:57.270Z,29.17
2018-11-02T00:56:28.151Z,31.83
2018-11-02T00:58:57.791Z,30.93
2018-11-02T01:01:27.233Z,20.47
2018-11-02T01:03:56.578Z,21.43
2018-11-02T01:06:26.024Z,18.13
2018-11-02T01:08:55.500Z,40.23
2018-11-02T01:11:24.924Z,67.63
2018-11-02T01:13:54.278Z,56.00
2018-11-02T01:16:23.522Z,38.53
2018-11-02T01:18:53.010Z,29.83
2018-11-02T01:21:22.459Z,35.67
2018-11-02T01:23:51.809Z,24.47
2018-11-02T01:26:21.218Z,18.23
2018-11-02T01:28:50.653Z,14.90
2018-11-02T01:31:20.027Z,19.83
2018-11-02T01:33:49.719Z,32.57
2018-11-02T01:36:19.565Z,34.20
2018-11-02T01:38:49.048Z,21.30
2018-11-02T01:41:18.509Z,17.13
2018-11-02T01:43:48.446Z,12.63
2018-11-02T01:46:17.756Z,3.87
2018-11-02T01:48:47.133Z,8.17
2018-11-02T01:51:16.617Z,5.40
2018-11-02T01:53:46.044Z,6.00
2018-11-02T01:56:15.709Z,7.83
2018-11-02T01:58:45.049Z,4.17
2018-11-02T02:01:14.547Z,10.30
2018-11-02T02:03:44.072Z,7.53
2018-11-02T02:06:13.537Z,9.47
2018-11-02T02:08:43.113Z,13.60
2018-11-02T02:11:12.454Z,17.73
2018-11-02T02:13:41.807Z,12.83
2018-11-02T02:16:11.286Z,14.70
2018-11-02T02:18:40.598Z,15.83
2018-11-02T02:21:09.913Z,11.97
2018-11-02T02:23:39.391Z,16.00
2018-11-02T02:26:08.791Z,7.83
2018-11-02T02:28:38.801Z,7.83
2018-11-02T02:31:08.229Z,9.00
2018-11-02T02:33:37.642Z,11.30
2018-11-02T02:36:07.220Z,9.20
2018-11-02T02:38:36.667Z,6.40
2018-11-02T02:41:06.224Z,4.43
2018-11-02T02:43:35.645Z,5.07
2018-11-02T02:46:05.255Z,4.23
2018-11-02T02:48:35.112Z,5.70
2018-11-02T02:51:04.510Z,4.70
2018-11-02T02:53:33.986Z,5.20
2018-11-02T02:56:03.374Z,10.93
2018-11-02T02:58:32.682Z,6.10
2018-11-02T03:01:02.024Z,8.83
2018-11-02T03:03:31.289Z,7.93
2018-11-02T03:06:00.883Z,23.50
2018-11-02T03:08:30.172Z,7.23
2018-11-02T03:10:59.546Z,6.63
2018-11-02T03:13:28.828Z,4.30
2018-11-02T03:15:58.202Z,6.13
2018-11-02T03:18:27.596Z,4.30
2018-11-02T03:20:56.888Z,7.03
2018-11-02T03:23:26.260Z,5.90
2018-11-02T03:25:55.743Z,7.97
2018-11-02T03:28:25.042Z,7.03
2018-11-02T03:30:54.454Z,19.10
2018-11-02T03:33:23.732Z,7.40
2018-11-02T03:35:53.143Z,5.67
2018-11-02T03:38:22.540Z,4.93
2018-11-02T03:40:51.944Z,2.10
2018-11-02T03:43:21.353Z,10.50
2018-11-02T03:45:50.839Z,5.13
2018-11-02T03:48:20.168Z,6.90
2018-11-02T03:50:49.523Z,3.70
2018-11-02T03:53:18.764Z,6.67
2018-11-02T03:55:49.154Z,6.60
2018-11-02T03:58:18.629Z,8.70
2018-11-02T04:00:48.289Z,3.97
2018-11-02T04:03:17.847Z,4.13
2018-11-02T04:05:47.174Z,5.23
2018-11-02T04:08:16.441Z,3.47
2018-11-02T04:10:46.430Z,9.47
2018-11-02T04:13:15.831Z,9.80
2018-11-02T04:15:45.196Z,2.40
2018-11-02T04:18:14.479Z,1.47
2018-11-02T04:20:43.755Z,2.90
2018-11-02T04:23:13.141Z,10.83
2018-11-02T04:25:42.516Z,4.10
2018-11-02T04:28:11.901Z,17.30
2018-11-02T04:30:41.224Z,4.43
2018-11-02T04:33:10.522Z,6.30
2018-11-02T04:35:39.889Z,2.07
2018-11-02T04:38:09.491Z,4.17
2018-11-02T04:40:38.805Z,2.87
2018-11-02T04:43:08.036Z,2.00
2018-11-02T04:45:41.221Z,2.17
2018-11-02T04:48:12.295Z,2.70
2018-11-02T04:50:42.052Z,3.10
2018-11-02T04:53:11.570Z,4.00
2018-11-02T04:55:40.995Z,5.37
2018-11-02T04:58:10.199Z,5.73
2018-11-02T05:00:40.020Z,4.30
2018-11-02T05:03:09.520Z,3.70
2018-11-02T05:05:39.014Z,0.90
2018-11-02T05:08:08.724Z,3.63
2018-11-02T05:10:37.984Z,4.00
2018-11-02T05:13:07.313Z,11.77
2018-11-02T05:15:36.601Z,5.50
2018-11-02T05:18:06.567Z,8.90
2018-11-02T05:20:36.736Z,3.47
2018-11-02T05:23:06.384Z,5.83
2018-11-02T05:25:35.786Z,4.23
2018-11-02T05:28:05.181Z,2.17
2018-11-02T05:30:34.506Z,1.33
2018-11-02T05:33:03.945Z,3.70
2018-11-02T05:35:33.278Z,7.00
2018-11-02T05:38:02.705Z,8.13
2018-11-02T05:40:32.061Z,3.13
2018-11-02T05:43:01.906Z,7.13
2018-11-02T05:45:31.339Z,1.23
2018-11-02T05:48:00.687Z,10.53
2018-11-02T05:50:30.252Z,13.10
2018-11-02T05:52:59.994Z,6.90
2018-11-02T05:55:29.476Z,4.10
2018-11-02T05:57:59.171Z,7.20
2018-11-02T06:00:29.103Z,3.83
2018-11-02T06:02:58.714Z,6.13
2018-11-02T06:05:28.436Z,3.50
2018-11-02T06:07:57.984Z,5.47
2018-11-02T06:10:27.326Z,8.13
2018-11-02T06:12:56.660Z,7.90
2018-11-02T06:15:26.535Z,8.80
2018-11-02T06:17:56.034Z,12.73
2018-11-02T06:20:25.432Z,8.70
2018-11-02T06:22:54.840Z,12.47
2018-11-02T06:25:24.405Z,7.87
2018-11-02T06:27:53.866Z,5.93
2018-11-02T06:30:23.503Z,9.77
2018-11-02T06:32:53.019Z,7.60
2018-11-02T06:35:22.492Z,6.00
2018-11-02T06:37:51.973Z,8.70
2018-11-02T06:40:21.427Z,5.93
2018-11-02T06:42:50.748Z,9.70
2018-11-02T06:45:20.899Z,10.60
2018-11-02T06:47:50.295Z,11.63
2018-11-02T06:50:19.954Z,12.73
2018-11-02T06:52:49.562Z,10.00
2018-11-02T06:55:19.469Z,13.70
2018-11-02T06:57:49.790Z,15.30
2018-11-02T07:00:19.079Z,16.23
2018-11-02T07:02:48.621Z,21.17
2018-11-02T07:05:17.786Z,13.77
2018-11-02T07:07:48.276Z,27.83
2018-11-02T07:10:17.559Z,18.87
2018-11-02T07:12:47.146Z,12.73
2018-11-02T07:15:16.818Z,12.43
2018-11-02T07:17:46.163Z,4.90
2018-11-02T07:20:15.515Z,12.60
2018-11-02T07:22:44.868Z,6.90
2018-11-02T07:25:14.386Z,8.10
2018-11-02T07:27:43.646Z,3.90
2018-11-02T07:30:13.316Z,12.40
2018-11-02T07:32:42.564Z,19.00
2018-11-02T07:35:12.031Z,37.70
2018-11-02T07:37:41.404Z,15.03
2018-11-02T07:40:12.004Z,16.50
2018-11-02T07:42:41.638Z,22.17
2018-11-02T07:45:12.084Z,19.27
2018-11-02T07:47:41.509Z,26.00
2018-11-02T07:50:12.215Z,21.43
2018-11-02T07:52:41.954Z,28.17
2018-11-02T07:55:13.270Z,41.23
2018-11-02T07:57:42.723Z,15.97
2018-11-02T08:00:13.792Z,16.93
2018-11-02T08:02:46.680Z,18.20
2018-11-02T08:05:17.195Z,9.47
2018-11-02T08:07:46.777Z,11.43
2018-11-02T08:10:16.264Z,17.47
2018-11-02T08:12:45.792Z,16.83
2018-11-02T08:15:15.172Z,13.40
2018-11-02T08:17:44.491Z,12.00
2018-11-02T08:20:14.216Z,9.63
2018-11-02T08:22:44.194Z,8.00
2018-11-02T08:25:13.795Z,12.00
2018-11-02T08:27:43.043Z,15.73
2018-11-02T08:30:12.812Z,7.60
2018-11-02T08:32:42.933Z,7.40
2018-11-02T08:35:14.053Z,5.67
2018-11-02T08:37:43.596Z,18.10
2018-11-02T08:40:14.885Z,12.70
2018-11-02T08:42:44.787Z,14.03
2018-11-02T08:45:14.552Z,8.73
2018-11-02T08:47:43.844Z,12.43
2018-11-02T08:50:13.678Z,7.57
2018-11-02T08:52:43.293Z,6.17
2018-11-02T08:55:12.855Z,4.80
2018-11-02T08:57:42.420Z,9.43
2018-11-02T09:00:13.726Z,20.90
2018-11-02T09:02:44.166Z,13.50
2018-11-02T09:05:13.778Z,10.47
2018-11-02T09:07:43.195Z,11.47
2018-11-02T09:10:13.125Z,22.53
2018-11-02T09:12:42.845Z,8.80
2018-11-02T09:15:12.404Z,11.23
2018-11-02T09:17:41.881Z,9.00
2018-11-02T09:20:11.858Z,11.40
2018-11-02T09:22:41.283Z,14.97
2018-11-02T09:25:11.158Z,11.73
2018-11-02T09:27:40.332Z,13.20
2018-11-02T09:30:13.974Z,26.50
2018-11-02T09:32:43.597Z,8.00
2018-11-02T09:35:13.484Z,8.23
2018-11-02T09:37:43.742Z,8.53
2018-11-02T09:40:13.431Z,9.10
2018-11-02T09:42:42.841Z,11.97
2018-11-02T09:45:13.910Z,7.07
2018-11-02T09:47:44.192Z,9.63
2018-11-02T09:50:14.279Z,13.63
2018-11-02T09:52:43.792Z,9.40
2018-11-02T09:55:15.654Z,14.77
2018-11-02T09:57:46.116Z,8.33
2018-11-02T10:00:15.775Z,11.10
2018-11-02T10:02:45.270Z,11.87
2018-11-02T10:05:14.913Z,7.53
2018-11-02T10:07:44.272Z,11.40
2018-11-02T10:10:14.091Z,12.00
2018-11-02T10:12:44.273Z,12.40
2018-11-02T10:15:15.135Z,11.17
2018-11-02T10:17:44.588Z,31.77
2018-11-02T10:20:13.930Z,12.60
2018-11-02T10:22:43.275Z,29.90
2018-11-02T10:25:12.778Z,17.47
2018-11-02T10:27:43.549Z,9.20
2018-11-02T10:30:13.950Z,18.60
2018-11-02T10:32:44.764Z,32.53
2018-11-02T10:35:14.177Z,21.80
2018-11-02T10:37:43.962Z,19.93
2018-11-02T10:40:16.515Z,17.87
2018-11-02T10:42:50.843Z,19.53
2018-11-02T10:45:21.200Z,20.17
2018-11-02T10:47:51.357Z,16.77
2018-11-02T10:50:20.957Z,10.17
2018-11-02T10:52:50.382Z,33.00
2018-11-02T10:55:19.823Z,17.90
2018-11-02T10:57:49.148Z,11.90
2018-11-02T11:00:23.535Z,9.50
2018-11-02T11:02:53.629Z,23.27
2018-11-02T11:05:24.183Z,14.50
2018-11-02T11:07:53.668Z,10.37
2018-11-02T11:10:23.819Z,9.93
2018-11-02T11:12:53.545Z,14.17
2018-11-02T11:15:22.781Z,18.10
2018-11-02T11:17:52.138Z,18.30
2018-11-02T11:20:21.481Z,8.60
2018-11-02T11:22:50.813Z,16.03
2018-11-02T11:25:20.393Z,13.77
2018-11-02T11:27:49.710Z,10.73
2018-11-02T11:30:20.503Z,13.53
2018-11-02T11:32:50.822Z,17.63
2018-11-02T11:35:21.139Z,18.00
2018-11-02T11:37:51.275Z,9.33
2018-11-02T11:40:21.533Z,18.20
2018-11-02T11:42:50.939Z,15.67
2018-11-02T11:45:20.701Z,22.30
2018-11-02T11:47:50.431Z,8.43
2018-11-02T11:50:21.568Z,11.43
2018-11-02T11:52:51.993Z,13.00
2018-11-02T11:55:22.290Z,12.83
2018-11-02T11:57:52.058Z,15.47
2018-11-02T12:00:22.689Z,11.90
2018-11-02T12:02:52.743Z,24.10
2018-11-02T12:05:23.354Z,25.67
2018-11-02T12:07:52.629Z,9.60
2018-11-02T12:10:24.404Z,8.17
2018-11-02T12:12:54.152Z,15.37
2018-11-02T12:15:24.341Z,7.20
2018-11-02T12:17:53.925Z,27.27
2018-11-02T12:20:25.668Z,19.27
2018-11-02T12:22:56.418Z,29.63
2018-11-02T12:25:25.664Z,26.20
2018-11-02T12:27:55.287Z,12.00
2018-11-02T12:30:24.699Z,10.90
2018-11-02T12:32:54.071Z,11.60
2018-11-02T12:35:23.605Z,13.93
2018-11-02T12:37:53.946Z,10.73
2018-11-02T12:40:24.377Z,9.83
2018-11-02T12:42:55.339Z,6.73
2018-11-02T12:45:24.953Z,8.77
2018-11-02T12:47:54.509Z,12.47
2018-11-02T12:50:26.089Z,9.00
2018-11-02T12:52:57.774Z,11.33
2018-11-02T12:55:27.176Z,23.90
2018-11-02T12:57:56.683Z,26.50
2018-11-02T13:00:27.175Z,21.57
2018-11-02T13:02:56.649Z,14.03
2018-11-02T13:05:26.042Z,19.17
2018-11-02T13:07:55.379Z,22.70
2018-11-02T13:10:25.039Z,15.40
2018-11-02T13:12:54.492Z,12.07
2018-11-02T13:15:24.599Z,12.43
2018-11-02T13:17:53.885Z,8.80
2018-11-02T13:20:23.330Z,10.63
2018-11-02T13:22:52.754Z,12.50
2018-11-02T13:25:22.763Z,7.30
2018-11-02T13:27:52.523Z,5.53
2018-11-02T13:30:22.232Z,16.87
2018-11-02T13:32:51.503Z,4.67
2018-11-02T13:35:21.228Z,7.43
2018-11-02T13:37:51.178Z,12.20
2018-11-02T13:40:20.709Z,10.87
2018-11-02T13:42:51.162Z,6.10
2018-11-02T13:45:20.772Z,8.27
2018-11-02T13:47:50.710Z,6.50
2018-11-02T13:50:20.163Z,15.40
2018-11-02T13:52:50.180Z,6.03
2018-11-02T13:55:19.624Z,10.73
2018-11-02T13:57:48.959Z,6.07
2018-11-02T14:00:19.151Z,7.77
2018-11-02T14:02:48.485Z,4.47
2018-11-02T14:05:18.777Z,9.80
2018-11-02T14:07:48.192Z,5.77
2018-11-02T14:10:17.966Z,8.93
2018-11-02T14:12:48.097Z,8.73
2018-11-02T14:15:18.185Z,9.00
2018-11-02T14:17:47.710Z,7.13
2018-11-02T14:20:17.129Z,12.53
2018-11-02T14:22:46.587Z,8.00
2018-11-02T14:25:18.016Z,40.23
2018-11-02T14:27:48.601Z,27.40
2018-11-02T14:30:18.378Z,18.83
2018-11-02T14:32:48.537Z,7.47
2018-11-02T14:35:18.551Z,10.93
2018-11-02T14:37:48.102Z,8.93
2018-11-02T14:40:17.538Z,10.40
2018-11-02T14:42:47.104Z,19.10
2018-11-02T14:45:16.949Z,9.60
2018-11-02T14:47:47.247Z,12.00
2018-11-02T14:50:17.589Z,8.63
2018-11-02T14:52:47.628Z,7.63
2018-11-02T14:55:17.182Z,8.40
2018-11-02T14:57:46.713Z,8.97
2018-11-02T15:00:16.302Z,10.23
2018-11-02T15:02:45.857Z,8.40
2018-11-02T15:05:15.408Z,4.60
2018-11-02T15:07:45.658Z,2.47
2018-11-02T15:10:16.263Z,2.50
2018-11-02T15:12:45.859Z,16.77
2018-11-02T15:15:15.333Z,8.90
2018-11-02T15:17:44.719Z,24.43
2018-11-02T15:20:15.155Z,4.03
2018-11-02T15:22:44.786Z,5.40
2018-11-02T15:25:14.195Z,8.60
2018-11-02T15:27:44.358Z,4.33
2018-11-02T15:30:15.345Z,4.73
2018-11-02T15:32:45.555Z,8.03
2018-11-02T15:35:15.104Z,7.40
2018-11-02T15:37:45.777Z,4.90
2018-11-02T15:40:15.221Z,5.43
2018-11-02T15:42:44.800Z,4.20
2018-11-02T15:45:15.714Z,9.90
2018-11-02T15:47:46.038Z,5.57
2018-11-02T15:50:15.525Z,6.60
2018-11-02T15:52:45.339Z,18.23
2018-11-02T15:55:14.850Z,15.77
2018-11-02T15:57:45.354Z,12.30
2018-11-02T16:00:17.405Z,16.73
2018-11-02T16:02:47.922Z,11.53
2018-11-02T16:05:17.195Z,7.10
2018-11-02T16:07:46.694Z,8.80
2018-11-02T16:10:16.602Z,6.57
2018-11-02T16:12:46.005Z,5.80
2018-11-02T16:15:15.958Z,7.10
2018-11-02T16:17:45.612Z,11.27
2018-11-02T16:20:15.897Z,5.80
2018-11-02T16:22:45.717Z,5.73
2018-11-02T16:25:15.272Z,5.70
2018-11-02T16:27:44.749Z,10.53
2018-11-02T16:30:14.356Z,5.27
2018-11-02T16:32:43.664Z,12.10
2018-11-02T16:35:13.435Z,14.10
2018-11-02T16:37:42.720Z,8.00
2018-11-02T16:40:13.916Z,4.70
2018-11-02T16:42:44.102Z,10.13
2018-11-02T16:45:14.552Z,16.97
2018-11-02T16:47:44.518Z,22.37
2018-11-02T16:50:15.243Z,7.37
2018-11-02T16:52:45.017Z,7.30
2018-11-02T16:55:14.612Z,13.17
2018-11-02T16:57:44.300Z,17.83
2018-11-02T17:00:16.133Z,8.10
2018-11-02T17:02:46.737Z,5.83
2018-11-02T17:05:16.447Z,4.00
2018-11-02T17:07:46.661Z,9.10
2018-11-02T17:10:16.546Z,8.37
2018-11-02T17:12:46.076Z,6.50
2018-11-02T17:15:15.582Z,9.87
2018-11-02T17:17:45.083Z,4.10
2018-11-02T17:20:15.785Z,6.53
2018-11-02T17:22:45.642Z,10.30
2018-11-02T17:25:15.195Z,12.03
2018-11-02T17:27:44.758Z,4.10
2018-11-02T17:30:15.365Z,8.20
2018-11-02T17:32:44.681Z,4.47
2018-11-02T17:35:15.108Z,12.50
2018-11-02T17:37:44.516Z,13.97
2018-11-02T17:40:15.148Z,7.30
2018-11-02T17:42:45.226Z,9.83
2018-11-02T17:45:14.843Z,9.00
2018-11-02T17:47:45.398Z,11.90
2018-11-02T17:50:16.797Z,25.07
2018-11-02T17:52:47.213Z,18.53
2018-11-02T17:55:16.672Z,26.07
2018-11-02T17:57:46.145Z,22.47
2018-11-02T18:00:16.288Z,12.03
2018-11-02T18:02:45.634Z,20.93
2018-11-02T18:05:15.190Z,12.43
2018-11-02T18:07:44.639Z,11.97
2018-11-02T18:10:14.518Z,26.30
2018-11-02T18:12:43.996Z,19.63
2018-11-02T18:15:13.962Z,19.67
2018-11-02T18:17:43.301Z,17.90
2018-11-02T18:20:14.592Z,17.80
2018-11-02T18:22:44.485Z,15.13
2018-11-02T18:25:14.343Z,17.30
2018-11-02T18:27:44.295Z,15.73
2018-11-02T18:30:14.247Z,17.70
2018-11-02T18:32:44.041Z,11.30
2018-11-02T18:35:13.438Z,13.13
2018-11-02T18:37:43.590Z,14.00
2018-11-02T18:40:13.974Z,11.43
2018-11-02T18:42:44.034Z,16.70
2018-11-02T18:45:14.622Z,16.17
2018-11-02T18:47:44.583Z,27.07
2018-11-02T18:50:16.108Z,17.80
2018-11-02T18:52:46.568Z,21.90
2018-11-02T18:55:16.220Z,19.00
2018-11-02T18:57:45.994Z,21.50
2018-11-02T19:00:15.815Z,21.47
2018-11-02T19:02:45.578Z,26.97
2018-11-02T19:05:17.099Z,22.73
2018-11-02T19:07:46.480Z,38.53
2018-11-02T19:10:15.907Z,25.93
2018-11-02T19:12:45.874Z,18.80
2018-11-02T19:15:19.519Z,23.37
2018-11-02T19:17:49.990Z,20.87
2018-11-02T19:20:19.725Z,24.30
2018-11-02T19:22:49.477Z,28.43
2018-11-02T19:25:19.232Z,16.80
2018-11-02T19:27:49.481Z,16.00
2018-11-02T19:30:19.210Z,17.00
2018-11-02T19:32:48.779Z,19.93
2018-11-02T19:35:18.654Z,16.13
2018-11-02T19:37:48.006Z,19.93
2018-11-02T19:40:19.224Z,48.07
2018-11-02T19:42:49.008Z,49.40
2018-11-02T19:45:18.523Z,32.37
2018-11-02T19:47:55.488Z,47.63
2018-11-02T19:50:24.897Z,26.77
2018-11-02T19:52:55.984Z,16.90
2018-11-02T19:55:25.885Z,22.27
2018-11-02T19:57:55.470Z,20.40
2018-11-02T20:00:24.952Z,17.50
2018-11-02T20:02:54.506Z,20.60
2018-11-02T20:05:24.325Z,20.13
2018-11-02T20:07:54.573Z,16.50
2018-11-02T20:10:25.205Z,14.80
2018-11-02T20:12:54.726Z,22.93
2018-11-02T20:15:25.245Z,11.97
2018-11-02T20:17:55.155Z,10.27
2018-11-02T20:20:25.624Z,12.63
2018-11-02T20:22:55.304Z,16.30
2018-11-02T20:25:25.090Z,16.17
2018-11-02T20:27:56.209Z,16.17
2018-11-02T20:30:26.373Z,15.03
2018-11-02T20:32:56.178Z,12.20
2018-11-02T20:35:25.773Z,21.87
2018-11-02T20:37:55.386Z,18.77
2018-11-02T20:40:24.893Z,16.90
2018-11-02T20:42:54.377Z,15.07
2018-11-02T20:45:23.881Z,22.40
2018-11-02T20:47:54.702Z,14.40
2018-11-02T20:50:25.261Z,15.50
2018-11-02T20:52:54.816Z,8.33
2018-11-02T20:55:24.436Z,13.27
2018-11-02T20:57:53.999Z,12.40
2018-11-02T21:00:25.001Z,11.00
2018-11-02T21:02:54.749Z,16.90
2018-11-02T21:05:24.412Z,13.70
2018-11-02T21:07:55.566Z,11.93
2018-11-02T21:10:25.173Z,12.27
2018-11-02T21:12:54.659Z,19.13
2018-11-02T21:15:25.221Z,21.90
2018-11-02T21:17:54.978Z,20.13
2018-11-02T21:20:26.781Z,17.67
2018-11-02T21:22:57.498Z,23.10
2018-11-02T21:25:28.179Z,27.13
2018-11-02T21:27:58.357Z,29.87
2018-11-02T21:30:29.265Z,27.53
2018-11-02T21:32:59.194Z,32.37
2018-11-02T21:35:28.784Z,22.10
2018-11-02T21:37:58.472Z,20.93
2018-11-02T21:40:28.133Z,22.30
2018-11-02T21:42:57.516Z,27.77
2018-11-02T21:45:26.947Z,26.47
2018-11-02T21:47:56.333Z,24.40
2018-11-02T21:50:25.854Z,21.53
2018-11-02T21:52:55.364Z,34.37
2018-11-02T21:55:24.792Z,25.73
2018-11-02T21:57:54.209Z,22.70
2018-11-02T22:00:23.999Z,21.40
2018-11-02T22:02:53.464Z,20.23
2018-11-02T22:05:23.035Z,24.20
2018-11-02T22:07:53.523Z,26.30
2018-11-02T22:10:22.896Z,25.10
2018-11-02T22:12:52.445Z,24.17
2018-11-02T22:15:21.927Z,20.83
2018-11-02T22:17:51.259Z,19.07
2018-11-02T22:20:21.026Z,19.60
2018-11-02T22:22:50.424Z,15.77
2018-11-02T22:25:19.899Z,17.43
2018-11-02T22:27:49.299Z,15.53
2018-11-02T22:30:18.867Z,16.73
2018-11-02T22:32:48.184Z,13.30
2018-11-02T22:35:17.506Z,14.80
2018-11-02T22:37:46.974Z,14.60
2018-11-02T22:40:16.626Z,26.77
2018-11-02T22:42:46.044Z,15.20
2018-11-02T22:45:16.178Z,18.20
2018-11-02T22:47:50.693Z,15.20
2018-11-02T22:50:19.836Z,22.53
2018-11-02T22:52:49.393Z,15.87
2018-11-02T22:55:18.904Z,22.70
2018-11-02T22:57:48.350Z,21.10
2018-11-02T23:00:19.119Z,19.77
2018-11-02T23:02:49.248Z,18.53
2018-11-02T23:05:19.093Z,17.17
2018-11-02T23:07:48.644Z,18.20
2018-11-02T23:10:17.760Z,22.27
2018-11-02T23:12:46.887Z,19.60
2018-11-02T23:15:16.545Z,27.33
2018-11-02T23:17:46.467Z,18.70
2018-11-02T23:20:15.963Z,23.90
2018-11-02T23:22:45.327Z,21.27
2018-11-02T23:25:14.727Z,17.67
2018-11-02T23:27:45.148Z,13.73
2018-11-02T23:30:14.660Z,15.97
2018-11-02T23:32:44.038Z,15.97
2018-11-02T23:35:14.170Z,15.63
2018-11-02T23:37:44.210Z,17.77
2018-11-02T23:40:13.938Z,20.27
2018-11-02T23:42:43.338Z,17.67
2018-11-02T23:45:13.007Z,16.73
2018-11-02T23:48:48.071Z,15.50
2018-11-02T23:51:17.396Z,16.67
2018-11-02T23:53:46.753Z,18.90
2018-11-02T23:56:16.295Z,14.63
2018-11-02T23:58:45.767Z,17.33
